createdAt,value
2017-07-02T00:01:03.211Z,-55
2017-07-02T00:11:03.295Z,-56
2017-07-02T00:21:03.283Z,-57
2017-07-02T00:31:03.314Z,-55
2017-07-02T00:41:03.287Z,-55
2017-07-02T00:51:03.324Z,-56
2017-07-02T01:01:03.271Z,-55
2017-07-02T01:11:03.286Z,-56
2017-07-02T01:21:03.287Z,-58
2017-07-02T01:31:03.328Z,-57
2017-07-02T01:41:03.277Z,-57
2017-07-02T01:51:03.234Z,-57
2017-07-02T02:01:03.301Z,-56
2017-07-02T02:11:03.234Z,-56
2017-07-02T02:21:03.305Z,-57
2017-07-02T02:31:03.298Z,-56
2017-07-02T02:41:03.238Z,-57
2017-07-02T02:51:03.315Z,-55
2017-07-02T03:01:03.281Z,-56
2017-07-02T03:11:03.238Z,-55
2017-07-02T03:21:03.271Z,-57
2017-07-02T03:31:03.229Z,-57
2017-07-02T03:41:03.317Z,-57
2017-07-02T03:51:03.248Z,-56
2017-07-02T04:01:03.270Z,-55
2017-07-02T04:11:03.302Z,-54
2017-07-02T04:21:03.215Z,-56
2017-07-02T04:31:03.194Z,-56
2017-07-02T04:41:03.271Z,-56
2017-07-02T04:51:03.240Z,-57
2017-07-02T05:01:03.295Z,-56
2017-07-02T05:11:03.279Z,-57
2017-07-02T05:21:03.203Z,-56
2017-07-02T05:31:03.285Z,-56
2017-07-02T05:41:03.228Z,-55
2017-07-02T05:51:03.200Z,-56
2017-07-02T06:01:03.308Z,-53
2017-07-02T06:11:03.244Z,-55
2017-07-02T06:21:03.306Z,-55
2017-07-02T06:31:03.256Z,-55
2017-07-02T06:41:03.534Z,-55
2017-07-02T06:51:03.257Z,-54
2017-07-02T07:01:03.245Z,-55
2017-07-02T07:11:03.334Z,-55
2017-07-02T07:21:03.254Z,-55
2017-07-02T07:31:03.306Z,-54
2017-07-02T07:41:03.314Z,-55
2017-07-02T07:51:03.251Z,-55
2017-07-02T08:01:03.309Z,-54
2017-07-02T08:11:03.319Z,-55
2017-07-02T08:21:03.375Z,-53
2017-07-02T08:31:03.337Z,-54
2017-07-02T08:41:03.301Z,-56
2017-07-02T08:51:03.352Z,-56
2017-07-02T09:01:03.333Z,-57
2017-07-02T09:11:03.228Z,-54
2017-07-02T09:21:03.390Z,-59
2017-07-02T09:31:03.301Z,-59
2017-07-02T09:41:03.232Z,-60
2017-07-02T09:51:05.275Z,-62
2017-07-02T10:01:03.328Z,-69
2017-07-02T10:11:03.299Z,-63
2017-07-02T10:21:03.277Z,-61
2017-07-02T10:31:03.336Z,-61
2017-07-02T10:41:03.340Z,-67
2017-07-02T10:51:03.350Z,-61
2017-07-02T11:01:03.538Z,-63
2017-07-02T11:11:03.803Z,-58
2017-07-02T11:21:03.352Z,-58
2017-07-02T11:31:03.274Z,-62
2017-07-02T11:41:03.870Z,-62
2017-07-02T11:51:03.275Z,-62
2017-07-02T12:01:03.275Z,-63
2017-07-02T12:11:03.247Z,-62
2017-07-02T12:21:03.352Z,-63
2017-07-02T12:31:03.259Z,-62
2017-07-02T12:41:03.250Z,-62
2017-07-02T12:51:03.292Z,-61
2017-07-02T13:01:03.250Z,-61
2017-07-02T13:11:03.258Z,-62
2017-07-02T13:21:03.306Z,-63
2017-07-02T13:31:03.333Z,-60
2017-07-02T13:41:03.272Z,-59
2017-07-02T13:51:03.265Z,-62
2017-07-02T14:01:03.389Z,-61
2017-07-02T14:11:03.264Z,-62
2017-07-02T14:21:03.310Z,-61
2017-07-02T14:31:03.263Z,-62
2017-07-02T14:41:03.486Z,-61
2017-07-02T14:51:03.472Z,-64
2017-07-02T15:01:03.418Z,-59
2017-07-02T15:11:03.622Z,-62
2017-07-02T15:21:05.332Z,-61
2017-07-02T15:31:03.289Z,-63
2017-07-02T15:41:03.280Z,-62
2017-07-02T15:51:03.396Z,-61
2017-07-02T16:01:03.305Z,-61
2017-07-02T16:11:03.863Z,-61
2017-07-02T16:21:03.355Z,-65
2017-07-02T16:31:03.318Z,-62
2017-07-02T16:41:05.691Z,-57
2017-07-02T16:51:03.903Z,-59
2017-07-02T17:01:03.294Z,-59
2017-07-02T17:11:03.334Z,-57
2017-07-02T17:21:03.368Z,-57
2017-07-02T17:31:03.400Z,-60
2017-07-02T17:41:03.340Z,-61
2017-07-02T17:51:03.333Z,-58
2017-07-02T18:01:13.927Z,-59
2017-07-02T18:11:04.225Z,-58
2017-07-02T18:21:20.799Z,-60
2017-07-02T18:51:03.674Z,-58
2017-07-02T19:01:04.601Z,-57
2017-07-02T19:11:16.124Z,-59
2017-07-02T19:21:11.110Z,-59
2017-07-02T19:31:19.214Z,-57
2017-07-02T19:41:08.149Z,-59
2017-07-02T19:51:03.773Z,-58
2017-07-02T20:01:12.065Z,-55
2017-07-02T20:11:15.282Z,-61
2017-07-02T20:21:07.073Z,-61
2017-07-02T20:31:06.118Z,-58
2017-07-02T20:41:49.681Z,-58
2017-07-02T21:01:15.021Z,-67
2017-07-02T21:11:10.702Z,-60
2017-07-02T21:21:07.291Z,-60
2017-07-02T21:31:08.174Z,-62
2017-07-02T21:41:12.088Z,-65
2017-07-02T21:51:03.636Z,-59
2017-07-02T22:01:03.654Z,-59
2017-07-02T22:11:03.578Z,-59
2017-07-02T22:21:03.740Z,-59
2017-07-02T22:31:03.959Z,-59
2017-07-02T22:41:03.732Z,-59
2017-07-02T22:51:03.663Z,-60
2017-07-02T23:01:03.940Z,-58
2017-07-02T23:11:03.698Z,-58
2017-07-02T23:21:03.616Z,-58
2017-07-02T23:31:03.826Z,-60
2017-07-02T23:41:03.528Z,-59
2017-07-02T23:51:05.788Z,-59
